sensor_id;sensor_type;location;lat;lon;timestamp;P1;durP1;ratioP1;P2;durP2;ratioP2
43337;SDS011;28933;52.492;13.434;2023-08-01T00:01:20;5.05;;;3.03;;
43337;SDS011;28933;52.492;13.434;2023-08-01T00:04:06;4.18;;;3.10;;
43337;SDS011;28933;52.492;13.434;2023-08-01T00:06:52;6.13;;;2.67;;
43337;SDS011;28933;52.492;13.434;2023-08-01T00:09:38;5.35;;;2.90;;
43337;SDS011;28933;52.492;13.434;2023-08-01T00:12:24;6.57;;;2.97;;
43337;SDS011;28933;52.492;13.434;2023-08-01T00:15:10;4.82;;;3.08;;
43337;SDS011;28933;52.492;13.434;2023-08-01T00:17:56;5.93;;;3.55;;
43337;SDS011;28933;52.492;13.434;2023-08-01T00:20:42;5.57;;;3.08;;
43337;SDS011;28933;52.492;13.434;2023-08-01T00:23:28;3.95;;;2.60;;
43337;SDS011;28933;52.492;13.434;2023-08-01T00:26:14;5.25;;;2.90;;
43337;SDS011;28933;52.492;13.434;2023-08-01T00:29:00;6.50;;;2.92;;
43337;SDS011;28933;52.492;13.434;2023-08-01T00:31:46;5.97;;;2.90;;
43337;SDS011;28933;52.492;13.434;2023-08-01T00:34:32;6.38;;;2.85;;
43337;SDS011;28933;52.492;13.434;2023-08-01T00:37:18;5.07;;;2.92;;
43337;SDS011;28933;52.492;13.434;2023-08-01T00:40:04;4.20;;;2.72;;
43337;SDS011;28933;52.492;13.434;2023-08-01T00:42:51;4.20;;;2.10;;
43337;SDS011;28933;52.492;13.434;2023-08-01T00:45:40;4.05;;;2.38;;
43337;SDS011;28933;52.492;13.434;2023-08-01T00:48:27;4.55;;;2.20;;
43337;SDS011;28933;52.492;13.434;2023-08-01T00:51:14;4.47;;;2.30;;
43337;SDS011;28933;52.492;13.434;2023-08-01T00:54:03;4.05;;;2.45;;
43337;SDS011;28933;52.492;13.434;2023-08-01T00:56:49;3.90;;;2.50;;
43337;SDS011;28933;52.492;13.434;2023-08-01T00:59:35;4.05;;;1.95;;
43337;SDS011;28933;52.492;13.434;2023-08-01T01:02:21;5.30;;;2.65;;
43337;SDS011;28933;52.492;13.434;2023-08-01T01:05:07;3.33;;;1.63;;
43337;SDS011;28933;52.492;13.434;2023-08-01T01:07:53;4.53;;;2.10;;
43337;SDS011;28933;52.492;13.434;2023-08-01T01:10:40;3.78;;;1.90;;
43337;SDS011;28933;52.492;13.434;2023-08-01T01:13:26;6.47;;;2.35;;
43337;SDS011;28933;52.492;13.434;2023-08-01T01:16:12;5.43;;;2.25;;
43337;SDS011;28933;52.492;13.434;2023-08-01T01:18:58;4.45;;;2.58;;
43337;SDS011;28933;52.492;13.434;2023-08-01T01:21:44;4.13;;;2.42;;
43337;SDS011;28933;52.492;13.434;2023-08-01T01:24:31;3.05;;;1.98;;
43337;SDS011;28933;52.492;13.434;2023-08-01T01:27:18;3.70;;;2.00;;
43337;SDS011;28933;52.492;13.434;2023-08-01T01:30:05;3.80;;;2.30;;
43337;SDS011;28933;52.492;13.434;2023-08-01T01:32:52;4.15;;;2.25;;
43337;SDS011;28933;52.492;13.434;2023-08-01T01:35:38;4.45;;;2.42;;
43337;SDS011;28933;52.492;13.434;2023-08-01T01:38:24;3.83;;;2.65;;
43337;SDS011;28933;52.492;13.434;2023-08-01T01:41:10;4.63;;;2.50;;
43337;SDS011;28933;52.492;13.434;2023-08-01T01:43:56;3.63;;;2.53;;
43337;SDS011;28933;52.492;13.434;2023-08-01T01:46:42;6.43;;;2.80;;
43337;SDS011;28933;52.492;13.434;2023-08-01T01:49:28;5.72;;;2.80;;
43337;SDS011;28933;52.492;13.434;2023-08-01T01:52:15;5.13;;;2.40;;
43337;SDS011;28933;52.492;13.434;2023-08-01T01:55:01;4.63;;;2.63;;
43337;SDS011;28933;52.492;13.434;2023-08-01T01:57:46;6.45;;;2.95;;
43337;SDS011;28933;52.492;13.434;2023-08-01T02:00:32;5.60;;;2.58;;
43337;SDS011;28933;52.492;13.434;2023-08-01T02:03:18;5.38;;;3.15;;
43337;SDS011;28933;52.492;13.434;2023-08-01T02:06:04;3.97;;;2.58;;
43337;SDS011;28933;52.492;13.434;2023-08-01T02:08:50;4.43;;;2.22;;
43337;SDS011;28933;52.492;13.434;2023-08-01T02:11:36;5.00;;;2.63;;
43337;SDS011;28933;52.492;13.434;2023-08-01T02:14:22;6.45;;;3.38;;
43337;SDS011;28933;52.492;13.434;2023-08-01T02:17:08;4.50;;;2.50;;
43337;SDS011;28933;52.492;13.434;2023-08-01T02:19:54;4.63;;;2.70;;
43337;SDS011;28933;52.492;13.434;2023-08-01T02:22:40;8.93;;;2.92;;
43337;SDS011;28933;52.492;13.434;2023-08-01T02:25:26;3.90;;;2.70;;
43337;SDS011;28933;52.492;13.434;2023-08-01T02:28:12;4.97;;;2.88;;
43337;SDS011;28933;52.492;13.434;2023-08-01T02:30:58;4.38;;;2.65;;
43337;SDS011;28933;52.492;13.434;2023-08-01T02:33:44;5.45;;;2.85;;
43337;SDS011;28933;52.492;13.434;2023-08-01T02:36:29;5.25;;;3.00;;
43337;SDS011;28933;52.492;13.434;2023-08-01T02:39:15;4.75;;;2.90;;
43337;SDS011;28933;52.492;13.434;2023-08-01T02:42:01;4.60;;;2.47;;
43337;SDS011;28933;52.492;13.434;2023-08-01T02:44:48;4.53;;;2.90;;
43337;SDS011;28933;52.492;13.434;2023-08-01T02:47:33;7.10;;;3.05;;
43337;SDS011;28933;52.492;13.434;2023-08-01T02:50:19;5.32;;;2.90;;
43337;SDS011;28933;52.492;13.434;2023-08-01T02:53:05;4.78;;;2.88;;
43337;SDS011;28933;52.492;13.434;2023-08-01T02:55:51;4.97;;;3.13;;
43337;SDS011;28933;52.492;13.434;2023-08-01T02:58:37;5.10;;;3.10;;
43337;SDS011;28933;52.492;13.434;2023-08-01T03:01:24;4.82;;;2.95;;
43337;SDS011;28933;52.492;13.434;2023-08-01T03:04:10;5.72;;;2.67;;
43337;SDS011;28933;52.492;13.434;2023-08-01T03:06:57;7.32;;;2.92;;
43337;SDS011;28933;52.492;13.434;2023-08-01T03:09:43;5.80;;;2.78;;
43337;SDS011;28933;52.492;13.434;2023-08-01T03:12:28;6.10;;;2.95;;
43337;SDS011;28933;52.492;13.434;2023-08-01T03:15:15;4.93;;;2.70;;
43337;SDS011;28933;52.492;13.434;2023-08-01T03:18:00;5.60;;;2.30;;
43337;SDS011;28933;52.492;13.434;2023-08-01T03:20:46;5.75;;;2.70;;
43337;SDS011;28933;52.492;13.434;2023-08-01T03:23:32;11.32;;;2.95;;
43337;SDS011;28933;52.492;13.434;2023-08-01T03:26:18;4.43;;;2.58;;
43337;SDS011;28933;52.492;13.434;2023-08-01T03:29:04;5.07;;;2.63;;
43337;SDS011;28933;52.492;13.434;2023-08-01T03:31:50;5.10;;;3.35;;
43337;SDS011;28933;52.492;13.434;2023-08-01T03:34:36;4.25;;;2.85;;
43337;SDS011;28933;52.492;13.434;2023-08-01T03:37:24;5.45;;;2.83;;
43337;SDS011;28933;52.492;13.434;2023-08-01T03:40:10;6.28;;;3.15;;
43337;SDS011;28933;52.492;13.434;2023-08-01T03:42:56;5.88;;;3.13;;
43337;SDS011;28933;52.492;13.434;2023-08-01T03:45:42;5.45;;;2.92;;
43337;SDS011;28933;52.492;13.434;2023-08-01T03:48:28;4.93;;;2.70;;
43337;SDS011;28933;52.492;13.434;2023-08-01T03:51:14;5.38;;;2.95;;
43337;SDS011;28933;52.492;13.434;2023-08-01T03:54:00;5.05;;;2.28;;
43337;SDS011;28933;52.492;13.434;2023-08-01T03:56:46;6.25;;;2.95;;
43337;SDS011;28933;52.492;13.434;2023-08-01T03:59:32;6.25;;;3.28;;
43337;SDS011;28933;52.492;13.434;2023-08-01T04:02:18;3.95;;;2.30;;
43337;SDS011;28933;52.492;13.434;2023-08-01T04:05:04;6.95;;;3.10;;
43337;SDS011;28933;52.492;13.434;2023-08-01T04:07:50;10.38;;;2.80;;
43337;SDS011;28933;52.492;13.434;2023-08-01T04:10:36;5.97;;;2.78;;
43337;SDS011;28933;52.492;13.434;2023-08-01T04:13:22;4.20;;;2.50;;
43337;SDS011;28933;52.492;13.434;2023-08-01T04:16:08;5.15;;;2.45;;
43337;SDS011;28933;52.492;13.434;2023-08-01T04:18:54;7.13;;;2.95;;
43337;SDS011;28933;52.492;13.434;2023-08-01T04:21:40;5.70;;;2.60;;
43337;SDS011;28933;52.492;13.434;2023-08-01T04:24:26;5.50;;;3.25;;
43337;SDS011;28933;52.492;13.434;2023-08-01T04:27:13;5.70;;;2.42;;
43337;SDS011;28933;52.492;13.434;2023-08-01T04:29:58;3.78;;;2.63;;
43337;SDS011;28933;52.492;13.434;2023-08-01T04:32:45;3.67;;;2.20;;
43337;SDS011;28933;52.492;13.434;2023-08-01T04:35:31;4.43;;;2.53;;
43337;SDS011;28933;52.492;13.434;2023-08-01T04:38:17;3.80;;;2.30;;
43337;SDS011;28933;52.492;13.434;2023-08-01T04:41:03;4.20;;;2.40;;
43337;SDS011;28933;52.492;13.434;2023-08-01T04:43:48;3.88;;;2.70;;
43337;SDS011;28933;52.492;13.434;2023-08-01T04:46:34;5.70;;;2.90;;
43337;SDS011;28933;52.492;13.434;2023-08-01T04:49:20;4.57;;;2.05;;
43337;SDS011;28933;52.492;13.434;2023-08-01T04:52:06;5.65;;;2.47;;
43337;SDS011;28933;52.492;13.434;2023-08-01T04:54:53;4.88;;;2.58;;
43337;SDS011;28933;52.492;13.434;2023-08-01T04:57:38;3.53;;;2.50;;
43337;SDS011;28933;52.492;13.434;2023-08-01T05:00:25;4.30;;;2.53;;
43337;SDS011;28933;52.492;13.434;2023-08-01T05:03:11;3.25;;;2.17;;
43337;SDS011;28933;52.492;13.434;2023-08-01T05:05:57;4.10;;;2.55;;
43337;SDS011;28933;52.492;13.434;2023-08-01T05:08:43;4.88;;;2.72;;
43337;SDS011;28933;52.492;13.434;2023-08-01T05:11:29;4.45;;;2.83;;
43337;SDS011;28933;52.492;13.434;2023-08-01T05:14:15;4.78;;;2.47;;
43337;SDS011;28933;52.492;13.434;2023-08-01T05:17:01;5.05;;;2.67;;
43337;SDS011;28933;52.492;13.434;2023-08-01T05:19:47;3.47;;;2.20;;
43337;SDS011;28933;52.492;13.434;2023-08-01T05:22:32;5.43;;;2.97;;
43337;SDS011;28933;52.492;13.434;2023-08-01T05:25:20;3.70;;;2.58;;
43337;SDS011;28933;52.492;13.434;2023-08-01T05:28:06;5.18;;;2.50;;
43337;SDS011;28933;52.492;13.434;2023-08-01T05:30:53;5.70;;;2.78;;
43337;SDS011;28933;52.492;13.434;2023-08-01T05:33:39;6.30;;;2.58;;
43337;SDS011;28933;52.492;13.434;2023-08-01T05:36:25;3.25;;;2.22;;
43337;SDS011;28933;52.492;13.434;2023-08-01T05:39:11;5.28;;;2.60;;
43337;SDS011;28933;52.492;13.434;2023-08-01T05:41:57;5.47;;;2.33;;
43337;SDS011;28933;52.492;13.434;2023-08-01T05:44:43;6.55;;;2.88;;
43337;SDS011;28933;52.492;13.434;2023-08-01T05:47:29;4.95;;;2.95;;
43337;SDS011;28933;52.492;13.434;2023-08-01T05:50:15;5.95;;;2.58;;
43337;SDS011;28933;52.492;13.434;2023-08-01T05:53:01;5.47;;;3.28;;
43337;SDS011;28933;52.492;13.434;2023-08-01T05:55:47;3.50;;;2.10;;
43337;SDS011;28933;52.492;13.434;2023-08-01T05:58:33;4.20;;;2.42;;
43337;SDS011;28933;52.492;13.434;2023-08-01T06:01:19;5.72;;;2.50;;
43337;SDS011;28933;52.492;13.434;2023-08-01T06:04:05;4.25;;;2.70;;
43337;SDS011;28933;52.492;13.434;2023-08-01T06:06:51;5.38;;;2.55;;
43337;SDS011;28933;52.492;13.434;2023-08-01T06:09:37;5.38;;;2.40;;
43337;SDS011;28933;52.492;13.434;2023-08-01T06:12:23;4.88;;;2.95;;
43337;SDS011;28933;52.492;13.434;2023-08-01T06:15:09;5.50;;;2.65;;
43337;SDS011;28933;52.492;13.434;2023-08-01T06:17:55;5.60;;;2.33;;
43337;SDS011;28933;52.492;13.434;2023-08-01T06:20:41;4.43;;;2.58;;
43337;SDS011;28933;52.492;13.434;2023-08-01T06:23:27;4.85;;;2.58;;
43337;SDS011;28933;52.492;13.434;2023-08-01T06:26:13;5.03;;;2.63;;
43337;SDS011;28933;52.492;13.434;2023-08-01T06:29:00;4.35;;;2.33;;
43337;SDS011;28933;52.492;13.434;2023-08-01T06:31:46;4.60;;;2.55;;
43337;SDS011;28933;52.492;13.434;2023-08-01T06:34:32;3.90;;;2.28;;
43337;SDS011;28933;52.492;13.434;2023-08-01T06:37:18;5.00;;;2.42;;
43337;SDS011;28933;52.492;13.434;2023-08-01T06:40:04;4.15;;;2.80;;
43337;SDS011;28933;52.492;13.434;2023-08-01T06:42:51;5.75;;;3.00;;
43337;SDS011;28933;52.492;13.434;2023-08-01T06:45:37;4.55;;;2.20;;
43337;SDS011;28933;52.492;13.434;2023-08-01T06:48:23;4.63;;;2.55;;
43337;SDS011;28933;52.492;13.434;2023-08-01T06:51:09;4.07;;;2.33;;
43337;SDS011;28933;52.492;13.434;2023-08-01T06:53:55;5.22;;;2.55;;
43337;SDS011;28933;52.492;13.434;2023-08-01T06:56:41;4.18;;;2.28;;
43337;SDS011;28933;52.492;13.434;2023-08-01T06:59:32;4.35;;;2.20;;
43337;SDS011;28933;52.492;13.434;2023-08-01T07:02:18;3.97;;;2.17;;
43337;SDS011;28933;52.492;13.434;2023-08-01T07:05:04;6.05;;;2.95;;
43337;SDS011;28933;52.492;13.434;2023-08-01T07:07:50;3.13;;;2.03;;
43337;SDS011;28933;52.492;13.434;2023-08-01T07:10:36;5.82;;;2.95;;
43337;SDS011;28933;52.492;13.434;2023-08-01T07:13:22;4.97;;;3.03;;
43337;SDS011;28933;52.492;13.434;2023-08-01T07:16:10;4.53;;;2.35;;
43337;SDS011;28933;52.492;13.434;2023-08-01T07:18:57;3.45;;;2.50;;
43337;SDS011;28933;52.492;13.434;2023-08-01T07:21:45;4.82;;;2.33;;
43337;SDS011;28933;52.492;13.434;2023-08-01T07:24:33;4.65;;;2.45;;
43337;SDS011;28933;52.492;13.434;2023-08-01T07:27:19;4.13;;;2.17;;
43337;SDS011;28933;52.492;13.434;2023-08-01T07:30:05;4.95;;;2.33;;
43337;SDS011;28933;52.492;13.434;2023-08-01T07:32:52;4.00;;;1.95;;
43337;SDS011;28933;52.492;13.434;2023-08-01T07:35:38;4.20;;;2.55;;
43337;SDS011;28933;52.492;13.434;2023-08-01T07:38:24;4.85;;;1.90;;
43337;SDS011;28933;52.492;13.434;2023-08-01T07:41:10;5.32;;;2.30;;
43337;SDS011;28933;52.492;13.434;2023-08-01T07:43:56;6.60;;;2.10;;
43337;SDS011;28933;52.492;13.434;2023-08-01T07:46:41;5.75;;;2.35;;
43337;SDS011;28933;52.492;13.434;2023-08-01T07:49:28;3.35;;;2.35;;
43337;SDS011;28933;52.492;13.434;2023-08-01T07:52:14;3.25;;;2.40;;
43337;SDS011;28933;52.492;13.434;2023-08-01T07:55:00;3.58;;;2.03;;
43337;SDS011;28933;52.492;13.434;2023-08-01T07:57:46;2.58;;;2.03;;
43337;SDS011;28933;52.492;13.434;2023-08-01T08:00:34;4.45;;;2.30;;
43337;SDS011;28933;52.492;13.434;2023-08-01T08:03:20;3.70;;;2.08;;
43337;SDS011;28933;52.492;13.434;2023-08-01T08:06:08;4.10;;;2.20;;
43337;SDS011;28933;52.492;13.434;2023-08-01T08:08:54;4.32;;;2.03;;
43337;SDS011;28933;52.492;13.434;2023-08-01T08:11:40;3.38;;;1.65;;
43337;SDS011;28933;52.492;13.434;2023-08-01T08:14:26;3.67;;;2.05;;
43337;SDS011;28933;52.492;13.434;2023-08-01T08:17:12;3.88;;;1.83;;
43337;SDS011;28933;52.492;13.434;2023-08-01T08:19:58;5.15;;;1.85;;
43337;SDS011;28933;52.492;13.434;2023-08-01T08:22:44;4.45;;;1.88;;
43337;SDS011;28933;52.492;13.434;2023-08-01T08:25:30;3.58;;;2.08;;
43337;SDS011;28933;52.492;13.434;2023-08-01T08:28:20;4.25;;;1.98;;
43337;SDS011;28933;52.492;13.434;2023-08-01T08:31:14;2.63;;;1.70;;
43337;SDS011;28933;52.492;13.434;2023-08-01T08:34:00;3.15;;;1.77;;
43337;SDS011;28933;52.492;13.434;2023-08-01T08:36:45;4.07;;;1.80;;
43337;SDS011;28933;52.492;13.434;2023-08-01T08:39:31;3.25;;;1.58;;
43337;SDS011;28933;52.492;13.434;2023-08-01T08:42:18;4.00;;;1.83;;
43337;SDS011;28933;52.492;13.434;2023-08-01T08:45:04;2.65;;;1.58;;
43337;SDS011;28933;52.492;13.434;2023-08-01T08:47:55;2.53;;;1.55;;
43337;SDS011;28933;52.492;13.434;2023-08-01T08:50:43;2.40;;;1.42;;
43337;SDS011;28933;52.492;13.434;2023-08-01T08:53:31;3.30;;;1.50;;
43337;SDS011;28933;52.492;13.434;2023-08-01T08:56:18;2.05;;;1.58;;
43337;SDS011;28933;52.492;13.434;2023-08-01T08:59:05;3.22;;;1.50;;
43337;SDS011;28933;52.492;13.434;2023-08-01T09:01:52;2.00;;;1.40;;
43337;SDS011;28933;52.492;13.434;2023-08-01T09:04:38;2.05;;;1.40;;
43337;SDS011;28933;52.492;13.434;2023-08-01T09:07:24;2.10;;;1.38;;
43337;SDS011;28933;52.492;13.434;2023-08-01T09:10:15;2.25;;;1.30;;
43337;SDS011;28933;52.492;13.434;2023-08-01T09:13:01;2.30;;;1.52;;
43337;SDS011;28933;52.492;13.434;2023-08-01T09:15:48;2.83;;;1.58;;
43337;SDS011;28933;52.492;13.434;2023-08-01T09:18:34;4.30;;;1.70;;
43337;SDS011;28933;52.492;13.434;2023-08-01T09:21:20;1.67;;;1.23;;
43337;SDS011;28933;52.492;13.434;2023-08-01T09:24:08;4.28;;;1.58;;
43337;SDS011;28933;52.492;13.434;2023-08-01T09:27:02;2.15;;;1.40;;
43337;SDS011;28933;52.492;13.434;2023-08-01T09:29:50;2.08;;;1.30;;
43337;SDS011;28933;52.492;13.434;2023-08-01T09:32:36;2.10;;;0.98;;
43337;SDS011;28933;52.492;13.434;2023-08-01T09:35:22;1.45;;;1.27;;
43337;SDS011;28933;52.492;13.434;2023-08-01T09:38:08;1.30;;;1.20;;
43337;SDS011;28933;52.492;13.434;2023-08-01T09:40:54;2.13;;;1.33;;
43337;SDS011;28933;52.492;13.434;2023-08-01T09:43:40;3.10;;;2.05;;
43337;SDS011;28933;52.492;13.434;2023-08-01T09:46:27;4.97;;;1.58;;
43337;SDS011;28933;52.492;13.434;2023-08-01T09:49:13;2.38;;;2.03;;
43337;SDS011;28933;52.492;13.434;2023-08-01T09:52:00;1.98;;;1.38;;
43337;SDS011;28933;52.492;13.434;2023-08-01T09:54:47;2.17;;;1.38;;
43337;SDS011;28933;52.492;13.434;2023-08-01T09:57:33;2.30;;;1.42;;
43337;SDS011;28933;52.492;13.434;2023-08-01T10:00:23;2.28;;;1.20;;
43337;SDS011;28933;52.492;13.434;2023-08-01T10:03:11;3.33;;;1.48;;
43337;SDS011;28933;52.492;13.434;2023-08-01T10:05:57;2.03;;;1.60;;
43337;SDS011;28933;52.492;13.434;2023-08-01T10:08:44;3.05;;;1.45;;
43337;SDS011;28933;52.492;13.434;2023-08-01T10:11:33;2.03;;;1.10;;
43337;SDS011;28933;52.492;13.434;2023-08-01T10:14:20;2.13;;;1.10;;
43337;SDS011;28933;52.492;13.434;2023-08-01T10:17:06;3.10;;;1.75;;
43337;SDS011;28933;52.492;13.434;2023-08-01T10:19:53;2.42;;;1.40;;
43337;SDS011;28933;52.492;13.434;2023-08-01T10:22:41;1.38;;;1.00;;
43337;SDS011;28933;52.492;13.434;2023-08-01T10:25:29;3.42;;;1.00;;
43337;SDS011;28933;52.492;13.434;2023-08-01T10:28:15;2.58;;;1.30;;
43337;SDS011;28933;52.492;13.434;2023-08-01T10:34:06;2.67;;;1.70;;
43337;SDS011;28933;52.492;13.434;2023-08-01T10:36:58;2.58;;;1.70;;
43337;SDS011;28933;52.492;13.434;2023-08-01T10:39:45;2.13;;;1.27;;
43337;SDS011;28933;52.492;13.434;2023-08-01T10:42:42;2.47;;;1.48;;
43337;SDS011;28933;52.492;13.434;2023-08-01T10:45:30;2.17;;;1.30;;
43337;SDS011;28933;52.492;13.434;2023-08-01T10:48:16;3.22;;;1.52;;
43337;SDS011;28933;52.492;13.434;2023-08-01T10:51:02;1.65;;;1.15;;
43337;SDS011;28933;52.492;13.434;2023-08-01T10:53:49;3.58;;;0.93;;
43337;SDS011;28933;52.492;13.434;2023-08-01T10:56:36;1.35;;;0.80;;
43337;SDS011;28933;52.492;13.434;2023-08-01T10:59:22;1.38;;;0.80;;
43337;SDS011;28933;52.492;13.434;2023-08-01T11:02:08;1.77;;;0.90;;
43337;SDS011;28933;52.492;13.434;2023-08-01T11:04:54;1.73;;;0.77;;
43337;SDS011;28933;52.492;13.434;2023-08-01T11:07:42;1.33;;;0.98;;
43337;SDS011;28933;52.492;13.434;2023-08-01T11:10:38;4.25;;;1.45;;
43337;SDS011;28933;52.492;13.434;2023-08-01T11:13:24;2.25;;;1.00;;
43337;SDS011;28933;52.492;13.434;2023-08-01T11:16:10;5.13;;;1.27;;
43337;SDS011;28933;52.492;13.434;2023-08-01T11:18:57;0.82;;;0.77;;
43337;SDS011;28933;52.492;13.434;2023-08-01T11:21:43;2.38;;;1.02;;
43337;SDS011;28933;52.492;13.434;2023-08-01T11:24:29;1.35;;;1.10;;
43337;SDS011;28933;52.492;13.434;2023-08-01T11:27:15;1.42;;;0.80;;
43337;SDS011;28933;52.492;13.434;2023-08-01T11:30:01;1.42;;;0.98;;
43337;SDS011;28933;52.492;13.434;2023-08-01T11:32:49;1.25;;;1.05;;
43337;SDS011;28933;52.492;13.434;2023-08-01T11:35:35;2.03;;;1.13;;
43337;SDS011;28933;52.492;13.434;2023-08-01T11:38:21;2.92;;;1.40;;
43337;SDS011;28933;52.492;13.434;2023-08-01T11:41:08;2.40;;;1.17;;
43337;SDS011;28933;52.492;13.434;2023-08-01T11:43:54;1.75;;;1.27;;
43337;SDS011;28933;52.492;13.434;2023-08-01T11:46:41;3.60;;;1.65;;
43337;SDS011;28933;52.492;13.434;2023-08-01T11:49:27;4.53;;;1.52;;
43337;SDS011;28933;52.492;13.434;2023-08-01T11:52:23;1.80;;;1.30;;
43337;SDS011;28933;52.492;13.434;2023-08-01T11:55:17;2.78;;;1.58;;
43337;SDS011;28933;52.492;13.434;2023-08-01T11:58:07;3.08;;;1.70;;
43337;SDS011;28933;52.492;13.434;2023-08-01T12:01:01;5.38;;;2.25;;
43337;SDS011;28933;52.492;13.434;2023-08-01T12:03:57;5.05;;;1.95;;
43337;SDS011;28933;52.492;13.434;2023-08-01T12:06:43;3.72;;;2.03;;
43337;SDS011;28933;52.492;13.434;2023-08-01T12:09:31;2.75;;;2.03;;
43337;SDS011;28933;52.492;13.434;2023-08-01T12:12:18;4.55;;;2.17;;
43337;SDS011;28933;52.492;13.434;2023-08-01T12:15:04;4.95;;;2.30;;
43337;SDS011;28933;52.492;13.434;2023-08-01T12:17:50;4.97;;;1.85;;
43337;SDS011;28933;52.492;13.434;2023-08-01T12:20:36;3.47;;;2.45;;
43337;SDS011;28933;52.492;13.434;2023-08-01T12:23:22;6.20;;;2.92;;
43337;SDS011;28933;52.492;13.434;2023-08-01T12:26:08;2.83;;;1.90;;
43337;SDS011;28933;52.492;13.434;2023-08-01T12:28:54;2.83;;;1.98;;
43337;SDS011;28933;52.492;13.434;2023-08-01T12:31:40;3.05;;;1.88;;
43337;SDS011;28933;52.492;13.434;2023-08-01T12:34:26;6.35;;;2.70;;
43337;SDS011;28933;52.492;13.434;2023-08-01T12:37:12;4.03;;;2.40;;
43337;SDS011;28933;52.492;13.434;2023-08-01T12:39:58;3.80;;;2.00;;
43337;SDS011;28933;52.492;13.434;2023-08-01T12:42:44;5.32;;;2.67;;
43337;SDS011;28933;52.492;13.434;2023-08-01T12:45:30;2.25;;;1.70;;
43337;SDS011;28933;52.492;13.434;2023-08-01T12:48:16;3.22;;;2.08;;
43337;SDS011;28933;52.492;13.434;2023-08-01T12:51:02;3.00;;;2.00;;
43337;SDS011;28933;52.492;13.434;2023-08-01T12:53:48;7.25;;;2.35;;
43337;SDS011;28933;52.492;13.434;2023-08-01T12:56:34;8.85;;;2.42;;
43337;SDS011;28933;52.492;13.434;2023-08-01T12:59:20;3.78;;;2.25;;
43337;SDS011;28933;52.492;13.434;2023-08-01T13:02:06;5.00;;;2.15;;
43337;SDS011;28933;52.492;13.434;2023-08-01T13:04:53;4.15;;;2.83;;
43337;SDS011;28933;52.492;13.434;2023-08-01T13:07:39;4.47;;;2.80;;
43337;SDS011;28933;52.492;13.434;2023-08-01T13:10:25;4.32;;;2.25;;
43337;SDS011;28933;52.492;13.434;2023-08-01T13:13:11;4.55;;;2.53;;
43337;SDS011;28933;52.492;13.434;2023-08-01T13:15:57;4.13;;;2.47;;
43337;SDS011;28933;52.492;13.434;2023-08-01T13:18:43;5.88;;;2.70;;
43337;SDS011;28933;52.492;13.434;2023-08-01T13:21:29;5.90;;;2.63;;
43337;SDS011;28933;52.492;13.434;2023-08-01T13:24:15;4.75;;;2.67;;
43337;SDS011;28933;52.492;13.434;2023-08-01T13:27:01;4.40;;;2.33;;
43337;SDS011;28933;52.492;13.434;2023-08-01T13:29:47;7.18;;;2.20;;
43337;SDS011;28933;52.492;13.434;2023-08-01T13:32:36;5.65;;;2.30;;
43337;SDS011;28933;52.492;13.434;2023-08-01T13:35:22;7.05;;;2.67;;
43337;SDS011;28933;52.492;13.434;2023-08-01T13:38:08;4.35;;;2.63;;
43337;SDS011;28933;52.492;13.434;2023-08-01T13:40:54;6.93;;;2.58;;
43337;SDS011;28933;52.492;13.434;2023-08-01T13:43:40;5.43;;;2.38;;
43337;SDS011;28933;52.492;13.434;2023-08-01T13:46:25;6.88;;;2.85;;
43337;SDS011;28933;52.492;13.434;2023-08-01T13:49:11;5.60;;;2.25;;
43337;SDS011;28933;52.492;13.434;2023-08-01T13:51:59;3.08;;;2.00;;
43337;SDS011;28933;52.492;13.434;2023-08-01T13:54:45;3.33;;;1.90;;
43337;SDS011;28933;52.492;13.434;2023-08-01T13:57:31;4.43;;;2.75;;
43337;SDS011;28933;52.492;13.434;2023-08-01T14:00:17;3.65;;;2.20;;
43337;SDS011;28933;52.492;13.434;2023-08-01T14:03:04;4.10;;;2.20;;
43337;SDS011;28933;52.492;13.434;2023-08-01T14:05:50;3.47;;;2.17;;
43337;SDS011;28933;52.492;13.434;2023-08-01T14:08:36;3.80;;;2.28;;
43337;SDS011;28933;52.492;13.434;2023-08-01T14:11:23;5.13;;;2.30;;
43337;SDS011;28933;52.492;13.434;2023-08-01T14:14:09;2.85;;;1.85;;
43337;SDS011;28933;52.492;13.434;2023-08-01T14:16:54;3.72;;;2.20;;
43337;SDS011;28933;52.492;13.434;2023-08-01T14:19:40;4.97;;;2.40;;
43337;SDS011;28933;52.492;13.434;2023-08-01T14:22:26;4.07;;;1.80;;
43337;SDS011;28933;52.492;13.434;2023-08-01T14:25:12;4.35;;;2.05;;
43337;SDS011;28933;52.492;13.434;2023-08-01T14:27:58;3.25;;;2.30;;
43337;SDS011;28933;52.492;13.434;2023-08-01T14:30:44;5.35;;;2.10;;
43337;SDS011;28933;52.492;13.434;2023-08-01T14:33:30;3.85;;;2.03;;
43337;SDS011;28933;52.492;13.434;2023-08-01T14:36:16;4.97;;;2.20;;
43337;SDS011;28933;52.492;13.434;2023-08-01T14:39:02;3.70;;;1.90;;
43337;SDS011;28933;52.492;13.434;2023-08-01T14:41:49;2.60;;;1.92;;
43337;SDS011;28933;52.492;13.434;2023-08-01T14:44:35;3.08;;;1.88;;
43337;SDS011;28933;52.492;13.434;2023-08-01T14:47:21;3.40;;;1.67;;
43337;SDS011;28933;52.492;13.434;2023-08-01T14:50:12;3.42;;;1.70;;
43337;SDS011;28933;52.492;13.434;2023-08-01T14:52:59;2.88;;;2.10;;
43337;SDS011;28933;52.492;13.434;2023-08-01T14:55:55;4.13;;;1.67;;
43337;SDS011;28933;52.492;13.434;2023-08-01T14:58:45;4.35;;;1.83;;
43337;SDS011;28933;52.492;13.434;2023-08-01T15:01:31;7.43;;;2.13;;
43337;SDS011;28933;52.492;13.434;2023-08-01T15:04:17;3.70;;;1.95;;
43337;SDS011;28933;52.492;13.434;2023-08-01T15:07:03;6.38;;;2.33;;
43337;SDS011;28933;52.492;13.434;2023-08-01T15:09:49;3.75;;;1.75;;
43337;SDS011;28933;52.492;13.434;2023-08-01T15:12:35;2.70;;;1.67;;
43337;SDS011;28933;52.492;13.434;2023-08-01T15:15:21;4.93;;;1.80;;
43337;SDS011;28933;52.492;13.434;2023-08-01T15:18:07;3.00;;;2.03;;
43337;SDS011;28933;52.492;13.434;2023-08-01T15:20:53;3.83;;;2.00;;
43337;SDS011;28933;52.492;13.434;2023-08-01T15:23:39;3.85;;;1.95;;
43337;SDS011;28933;52.492;13.434;2023-08-01T15:26:25;2.90;;;1.38;;
43337;SDS011;28933;52.492;13.434;2023-08-01T15:29:11;4.13;;;1.80;;
43337;SDS011;28933;52.492;13.434;2023-08-01T15:31:58;4.13;;;1.83;;
43337;SDS011;28933;52.492;13.434;2023-08-01T15:34:44;2.28;;;1.40;;
43337;SDS011;28933;52.492;13.434;2023-08-01T15:37:30;4.38;;;2.00;;
43337;SDS011;28933;52.492;13.434;2023-08-01T15:40:15;2.72;;;1.73;;
43337;SDS011;28933;52.492;13.434;2023-08-01T15:43:01;3.67;;;1.50;;
43337;SDS011;28933;52.492;13.434;2023-08-01T15:45:47;3.45;;;2.10;;
43337;SDS011;28933;52.492;13.434;2023-08-01T15:48:34;4.00;;;1.80;;
43337;SDS011;28933;52.492;13.434;2023-08-01T15:51:21;3.38;;;1.80;;
43337;SDS011;28933;52.492;13.434;2023-08-01T15:54:07;3.90;;;2.25;;
43337;SDS011;28933;52.492;13.434;2023-08-01T15:56:53;4.60;;;2.22;;
43337;SDS011;28933;52.492;13.434;2023-08-01T15:59:39;4.72;;;1.90;;
43337;SDS011;28933;52.492;13.434;2023-08-01T16:02:25;3.17;;;1.85;;
43337;SDS011;28933;52.492;13.434;2023-08-01T16:05:11;3.88;;;1.70;;
43337;SDS011;28933;52.492;13.434;2023-08-01T16:07:57;5.05;;;2.05;;
43337;SDS011;28933;52.492;13.434;2023-08-01T16:10:43;2.75;;;1.90;;
43337;SDS011;28933;52.492;13.434;2023-08-01T16:13:30;3.00;;;2.00;;
43337;SDS011;28933;52.492;13.434;2023-08-01T16:16:16;4.65;;;2.35;;
43337;SDS011;28933;52.492;13.434;2023-08-01T16:19:02;4.78;;;2.10;;
43337;SDS011;28933;52.492;13.434;2023-08-01T16:21:48;2.13;;;1.67;;
43337;SDS011;28933;52.492;13.434;2023-08-01T16:24:34;3.03;;;1.60;;
43337;SDS011;28933;52.492;13.434;2023-08-01T16:27:20;6.95;;;2.50;;
43337;SDS011;28933;52.492;13.434;2023-08-01T16:30:06;3.03;;;1.63;;